METAR AND TAF INFORMATION
METAR FOR LIPX
ADDS - METARS form results

(0043 UTC 13 December 2019)
Data provider http://aviationweather.gov/metar/data/
 
METAR text: LIPX 130020Z VRB02KT 0100 R04/0375N FZFG VV001 M02/M02 Q1000
Conditions at: LIPX (VILLAFRANCA(CV/M, IT) observed 0020 UTC 13 December 2019
Temperature: -2.0°C (28°F)
Dewpoint: -2.0°C (28°F) [RH = 100%]
Pressure (altimeter): 29.53 inches Hg (1000.0 mb)
Winds: variable direction winds at 2 MPH (2 knots; 1.0 m/s)
Visibility: 0.06 miles (0.10 km)
Ceiling: indefinite ceiling with vertical visibility of 100 feet AGL
Clouds: obscured sky
Weather: FZFG  (freezing fog)

METAR text: LIPX 122350Z VRB01KT 0100 R04/0450N FZFG VV001 M01/M01 Q1001
Conditions at: LIPX (VILLAFRANCA(CV/M, IT) observed 2350 UTC 12 December 2019
Temperature: -1.0°C (30°F)
Dewpoint: -1.0°C (30°F) [RH = 100%]
Pressure (altimeter): 29.56 inches Hg (1001.0 mb)
Winds: variable direction winds at 1 MPH (1 knots; 0.5 m/s)
Visibility: 0.06 miles (0.10 km)
Ceiling: indefinite ceiling with vertical visibility of 100 feet AGL
Clouds: obscured sky
Weather: FZFG  (freezing fog)

Forecast for: LIPX (VILLAFRANCA(CV/M, IT)
Text: TAF LIPX 122300Z 1300/1309 VRB05KT 2500 BR BKN010
Forecast period: 0000 to 0400 UTC 13 December 2019
Forecast type: FROM: standard forecast or significant change
Winds: variable direction winds at 6 MPH (5 knots; 2.6 m/s)
Visibility: 1.55 miles (2.49 km)
Ceiling: 1000 feet AGL
Clouds: broken clouds at 1000 feet AGL
Weather: BR  (mist)
Text: BECMG 1304/1306 1000 SN OVC005
Forecast period: 0400 to 0900 UTC 13 December 2019
Forecast type: BECOMING: Conditions expected to become as follows by 0600 UTC 13 December 2019
Winds: variable direction winds at 6 MPH (5 knots; 2.6 m/s)
Visibility: 0.62 miles (1.00 km)
Ceiling: 500 feet AGL
Clouds: overcast cloud deck at 500 feet AGL
Weather: SN  (moderate snow)

 AIRPORT MAP

 RUNWAY INFORMATION
Runway 04 Runway length 10064 ft Runway width 148 ft
Runway elevation 220 ft Runway displaced threshold 189 ft Runway heading 46
Runway 22 Runway length 10064 ft Runway width 148 ft
Runway elevation 238 ft Runway displaced threshold 1345 ft Runway heading 226

 AIRPORT FREQUENCIES
Type APP Name GARDA APP Frequency 36.23 MHZ
Type APP Name GARDA APP Frequency 124.45 MHZ
Type GND Name GND Frequency 121.75 MHZ
Type INFO Name PADOVA INF Frequency 123.25 MHZ
Type TWR Name TWR Frequency 118.65 MHZ

 AIRPORT NEAR NAVIGATION AIDS
Type VORTAC Name Villafranca Frequency 115800 KHZ
Type NDB Name Villafranca Frequency 355 KHZ



Powered by Western Air Virtual